createdAt,value
2022-11-16T00:00:36.007Z,17.00
2022-11-16T00:01:35.989Z,17.10
2022-11-16T00:02:36.059Z,15.30
2022-11-16T00:03:35.988Z,18.10
2022-11-16T00:04:35.959Z,18.10
2022-11-16T00:05:35.976Z,16.80
2022-11-16T00:06:35.952Z,20.00
2022-11-16T00:07:35.999Z,23.60
2022-11-16T00:08:36.177Z,20.90
2022-11-16T00:09:35.904Z,21.30
2022-11-16T00:10:35.914Z,22.40
2022-11-16T00:11:35.868Z,23.00
2022-11-16T00:12:35.856Z,19.80
2022-11-16T00:13:35.833Z,24.40
2022-11-16T00:14:35.843Z,22.90
2022-11-16T00:15:35.870Z,27.10
2022-11-16T00:16:35.788Z,25.10
2022-11-16T00:17:35.772Z,22.90
2022-11-16T00:18:35.962Z,20.80
2022-11-16T00:19:35.772Z,24.80
2022-11-16T00:20:35.749Z,23.30
2022-11-16T00:21:35.750Z,21.70
2022-11-16T00:22:35.718Z,19.70
2022-11-16T00:23:35.704Z,23.10
2022-11-16T00:24:35.707Z,21.90
2022-11-16T00:25:35.669Z,22.40
2022-11-16T00:26:35.688Z,20.60
2022-11-16T00:27:35.647Z,19.40
2022-11-16T00:28:36.046Z,19.80
2022-11-16T00:29:35.614Z,20.30
2022-11-16T00:30:35.611Z,21.50
2022-11-16T00:31:35.610Z,19.50
2022-11-16T00:32:35.587Z,17.90
2022-11-16T00:33:35.573Z,22.10
2022-11-16T00:34:35.556Z,20.80
2022-11-16T00:35:35.555Z,18.70
2022-11-16T00:36:35.551Z,18.30
2022-11-16T00:37:35.512Z,18.40
2022-11-16T00:38:35.876Z,18.50
2022-11-16T00:39:35.488Z,20.70
2022-11-16T00:40:35.515Z,21.20
2022-11-16T00:41:35.453Z,19.90
2022-11-16T00:42:35.483Z,20.10
2022-11-16T00:43:35.456Z,17.50
2022-11-16T00:44:35.425Z,19.60
2022-11-16T00:45:35.412Z,20.20
2022-11-16T00:46:35.420Z,17.00
2022-11-16T00:47:35.376Z,20.30
2022-11-16T00:48:35.710Z,20.20
2022-11-16T00:49:35.365Z,19.80
2022-11-16T00:50:35.347Z,17.80
2022-11-16T00:51:35.352Z,17.00
2022-11-16T00:52:35.323Z,20.10
2022-11-16T00:53:35.295Z,19.20
2022-11-16T00:54:35.321Z,19.00
2022-11-16T00:55:35.273Z,19.20
2022-11-16T00:56:35.265Z,19.50
2022-11-16T00:57:35.242Z,17.70
2022-11-16T00:58:35.591Z,21.00
2022-11-16T00:59:35.252Z,17.60
2022-11-16T01:00:35.232Z,20.20
2022-11-16T01:01:35.377Z,19.20
2022-11-16T01:02:35.186Z,20.40
2022-11-16T01:03:35.163Z,21.20
2022-11-16T01:04:35.173Z,20.20
2022-11-16T01:05:35.195Z,19.50
2022-11-16T01:06:35.147Z,21.30
2022-11-16T01:07:35.221Z,21.70
2022-11-16T01:08:35.372Z,22.60
2022-11-16T01:09:35.086Z,21.10
2022-11-16T01:10:35.082Z,20.60
2022-11-16T01:11:35.083Z,20.20
2022-11-16T01:12:35.059Z,19.70
2022-11-16T01:13:35.037Z,22.70
2022-11-16T01:14:35.050Z,21.70
2022-11-16T01:15:35.034Z,24.80
2022-11-16T01:16:35.024Z,20.30
2022-11-16T01:17:34.989Z,19.90
2022-11-16T01:18:35.382Z,20.70
2022-11-16T01:19:34.959Z,23.00
2022-11-16T01:20:34.957Z,21.00
2022-11-16T01:21:34.941Z,23.40
2022-11-16T01:22:34.920Z,23.40
2022-11-16T01:23:34.929Z,20.40
2022-11-16T01:24:34.912Z,20.90
2022-11-16T01:25:34.885Z,20.00
2022-11-16T01:26:34.886Z,21.90
2022-11-16T01:27:34.859Z,21.50
2022-11-16T01:28:35.276Z,23.80
2022-11-16T01:29:34.812Z,22.10
2022-11-16T01:30:34.813Z,21.50
2022-11-16T01:31:34.817Z,22.70
2022-11-16T01:32:34.798Z,23.10
2022-11-16T01:33:34.764Z,20.70
2022-11-16T01:34:34.771Z,24.00
2022-11-16T01:35:34.756Z,23.20
2022-11-16T01:36:34.742Z,24.70
2022-11-16T01:37:34.737Z,22.80
2022-11-16T01:38:35.056Z,24.40
2022-11-16T01:39:34.696Z,23.40
2022-11-16T01:40:34.714Z,21.70
2022-11-16T01:41:34.672Z,24.30
2022-11-16T01:42:34.654Z,29.80
2022-11-16T01:43:34.642Z,23.90
2022-11-16T01:44:34.657Z,21.30
2022-11-16T01:45:34.614Z,23.20
2022-11-16T01:46:34.610Z,24.80
2022-11-16T01:47:34.580Z,24.00
2022-11-16T01:48:34.996Z,23.80
2022-11-16T01:49:34.555Z,25.70
2022-11-16T01:50:34.572Z,24.80
2022-11-16T01:51:34.543Z,24.90
2022-11-16T01:52:34.526Z,29.60
2022-11-16T01:53:34.501Z,25.10
2022-11-16T01:54:34.484Z,26.30
2022-11-16T01:55:34.504Z,28.70
2022-11-16T01:56:34.488Z,24.40
2022-11-16T01:57:34.453Z,25.10
2022-11-16T01:58:34.774Z,24.40
2022-11-16T01:59:34.435Z,26.30
2022-11-16T02:00:34.429Z,27.10
2022-11-16T02:01:34.468Z,29.10
2022-11-16T02:02:34.387Z,24.50
2022-11-16T02:03:34.363Z,29.80
2022-11-16T02:04:34.372Z,27.80
2022-11-16T02:05:34.362Z,26.80
2022-11-16T02:06:34.348Z,29.80
2022-11-16T02:07:34.372Z,25.50
2022-11-16T02:08:34.584Z,27.80
2022-11-16T02:09:34.304Z,26.10
2022-11-16T02:10:34.284Z,29.30
2022-11-16T02:11:34.285Z,27.80
2022-11-16T02:12:34.280Z,30.20
2022-11-16T02:13:34.238Z,31.70
2022-11-16T02:14:34.251Z,27.20
2022-11-16T02:15:34.215Z,31.50
2022-11-16T02:16:34.252Z,32.40
2022-11-16T02:17:34.203Z,28.00
2022-11-16T02:18:34.458Z,33.30
2022-11-16T02:19:34.196Z,29.40
2022-11-16T02:20:34.149Z,31.20
2022-11-16T02:21:34.133Z,31.70
2022-11-16T02:22:34.153Z,29.10
2022-11-16T02:23:34.125Z,27.90
2022-11-16T02:24:34.128Z,30.60
2022-11-16T02:25:34.082Z,31.80
2022-11-16T02:26:34.071Z,32.80
2022-11-16T02:27:34.079Z,29.10
2022-11-16T02:28:34.417Z,30.30
2022-11-16T02:29:34.041Z,29.50
2022-11-16T02:30:34.026Z,30.60
2022-11-16T02:31:33.995Z,27.20
2022-11-16T02:32:34.010Z,25.00
2022-11-16T02:33:34.000Z,29.70
2022-11-16T02:34:33.971Z,26.80
2022-11-16T02:35:33.944Z,24.50
2022-11-16T02:36:33.932Z,24.00
2022-11-16T02:37:33.946Z,25.40
2022-11-16T02:38:34.239Z,23.50
2022-11-16T02:39:33.900Z,21.90
2022-11-16T02:40:33.888Z,25.50
2022-11-16T02:41:33.870Z,22.00
2022-11-16T02:42:33.881Z,22.70
2022-11-16T02:43:33.851Z,23.30
2022-11-16T02:44:33.851Z,24.20
2022-11-16T02:45:33.814Z,22.70
2022-11-16T02:46:33.806Z,20.30
2022-11-16T02:47:33.777Z,20.60
2022-11-16T02:48:34.209Z,18.60
2022-11-16T02:49:33.767Z,21.90
2022-11-16T02:50:33.769Z,21.70
2022-11-16T02:51:33.726Z,21.10
2022-11-16T02:52:33.721Z,20.90
2022-11-16T02:53:33.706Z,18.30
2022-11-16T02:54:33.690Z,21.60
2022-11-16T02:55:33.724Z,19.90
2022-11-16T02:56:33.662Z,20.20
2022-11-16T02:57:33.657Z,21.70
2022-11-16T02:58:34.051Z,20.00
2022-11-16T02:59:33.655Z,18.10
2022-11-16T03:00:33.619Z,21.10
2022-11-16T03:01:33.686Z,21.10
2022-11-16T03:02:33.600Z,19.50
2022-11-16T03:03:33.576Z,21.70
2022-11-16T03:04:33.584Z,19.80
2022-11-16T03:05:33.596Z,20.40
2022-11-16T03:06:33.570Z,18.00
2022-11-16T03:07:33.645Z,20.10
2022-11-16T03:08:33.782Z,23.10
2022-11-16T03:09:33.492Z,18.40
2022-11-16T03:10:33.484Z,20.30
2022-11-16T03:11:33.513Z,19.60
2022-11-16T03:12:33.466Z,18.30
2022-11-16T03:13:33.482Z,17.60
2022-11-16T03:14:33.426Z,19.50
2022-11-16T03:15:33.429Z,19.80
2022-11-16T03:16:33.423Z,18.20
2022-11-16T03:17:33.387Z,18.50
2022-11-16T03:18:33.635Z,21.10
2022-11-16T03:19:33.362Z,19.40
2022-11-16T03:20:33.351Z,20.00
2022-11-16T03:21:33.337Z,18.30
2022-11-16T03:22:33.327Z,17.40
2022-11-16T03:23:33.330Z,20.00
2022-11-16T03:24:33.314Z,19.40
2022-11-16T03:25:33.292Z,16.60
2022-11-16T03:26:33.275Z,17.90
2022-11-16T03:27:33.278Z,16.90
2022-11-16T03:28:33.617Z,19.10
2022-11-16T03:29:33.239Z,19.20
2022-11-16T03:30:33.220Z,18.10
2022-11-16T03:31:33.224Z,18.30
2022-11-16T03:32:33.224Z,18.70
2022-11-16T03:33:33.222Z,20.40
2022-11-16T03:34:33.166Z,21.10
2022-11-16T03:35:33.156Z,16.40
2022-11-16T03:36:33.136Z,15.50
2022-11-16T03:37:33.154Z,19.30
2022-11-16T03:38:33.494Z,17.10
2022-11-16T03:39:33.096Z,20.90
2022-11-16T03:40:33.091Z,15.60
2022-11-16T03:41:33.092Z,18.20
2022-11-16T03:42:33.053Z,18.10
2022-11-16T03:43:33.072Z,19.10
2022-11-16T03:44:33.045Z,18.30
2022-11-16T03:45:33.011Z,18.50
2022-11-16T03:46:33.038Z,17.80
2022-11-16T03:47:33.001Z,17.70
2022-11-16T03:48:33.242Z,16.10
2022-11-16T03:49:32.968Z,18.20
2022-11-16T03:50:32.973Z,18.60
2022-11-16T03:51:32.942Z,19.20
2022-11-16T03:52:32.968Z,17.70
2022-11-16T03:53:32.914Z,21.70
2022-11-16T03:54:32.904Z,19.00
2022-11-16T03:55:32.908Z,17.60
2022-11-16T03:56:32.882Z,19.40
2022-11-16T03:57:32.862Z,17.40
2022-11-16T03:58:33.236Z,17.00
2022-11-16T03:59:32.828Z,17.00
2022-11-16T04:00:32.874Z,15.60
2022-11-16T04:01:32.855Z,16.70
2022-11-16T04:02:32.805Z,15.50
2022-11-16T04:03:32.813Z,17.00
2022-11-16T04:04:32.769Z,16.30
2022-11-16T04:05:32.751Z,17.00
2022-11-16T04:06:32.753Z,15.70
2022-11-16T04:07:32.783Z,15.90
2022-11-16T04:08:33.149Z,18.50
2022-11-16T04:09:32.734Z,17.40
2022-11-16T04:10:32.681Z,17.30
2022-11-16T04:11:32.676Z,21.10
2022-11-16T04:12:32.654Z,15.90
2022-11-16T04:13:32.645Z,14.60
2022-11-16T04:14:32.662Z,17.80
2022-11-16T04:15:32.617Z,16.10
2022-11-16T04:16:32.611Z,17.20
2022-11-16T04:17:32.596Z,15.90
2022-11-16T04:18:32.924Z,15.90
2022-11-16T04:19:32.586Z,14.60
2022-11-16T04:20:32.561Z,15.80
2022-11-16T04:21:32.543Z,16.30
2022-11-16T04:22:32.535Z,16.10
2022-11-16T04:23:32.528Z,14.70
2022-11-16T04:24:32.530Z,17.90
2022-11-16T04:25:32.484Z,20.30
2022-11-16T04:26:32.505Z,21.00
2022-11-16T04:27:32.470Z,24.90
2022-11-16T04:28:32.881Z,36.70
2022-11-16T04:29:32.439Z,41.50
2022-11-16T04:30:32.421Z,17.40
2022-11-16T04:31:32.410Z,27.90
2022-11-16T04:32:32.436Z,46.00
2022-11-16T04:33:32.382Z,52.30
2022-11-16T04:34:32.383Z,53.00
2022-11-16T04:35:32.351Z,61.80
2022-11-16T04:36:32.370Z,63.50
2022-11-16T04:37:32.330Z,64.30
2022-11-16T04:38:32.700Z,58.50
2022-11-16T04:39:32.324Z,49.30
2022-11-16T04:40:32.291Z,82.40
2022-11-16T04:41:32.304Z,53.60
2022-11-16T04:42:32.273Z,73.10
2022-11-16T04:43:32.260Z,86.50
2022-11-16T04:44:32.254Z,72.90
2022-11-16T04:45:32.232Z,43.10
2022-11-16T04:46:32.260Z,38.30
2022-11-16T04:47:32.207Z,22.00
2022-11-16T04:48:32.380Z,17.40
2022-11-16T04:49:32.196Z,14.90
2022-11-16T04:50:32.144Z,15.70
2022-11-16T04:51:32.154Z,15.40
2022-11-16T04:52:32.190Z,17.40
2022-11-16T04:53:32.129Z,14.90
2022-11-16T04:54:32.098Z,15.90
2022-11-16T04:55:32.095Z,17.90
2022-11-16T04:56:32.089Z,14.80
2022-11-16T04:57:32.095Z,17.80
2022-11-16T04:58:32.365Z,17.20
2022-11-16T04:59:32.069Z,16.20
2022-11-16T05:00:32.069Z,14.80
2022-11-16T05:01:32.085Z,15.90
2022-11-16T05:02:32.003Z,17.90
2022-11-16T05:03:32.024Z,18.10
2022-11-16T05:04:31.993Z,16.70
2022-11-16T05:05:32.053Z,16.10
2022-11-16T05:06:31.962Z,17.80
2022-11-16T05:07:31.996Z,18.00
2022-11-16T05:08:32.168Z,19.50
2022-11-16T05:09:31.911Z,18.80
2022-11-16T05:10:31.945Z,19.50
2022-11-16T05:11:31.883Z,18.20
2022-11-16T05:12:31.864Z,16.40
2022-11-16T05:13:31.858Z,16.70
2022-11-16T05:14:31.847Z,16.30
2022-11-16T05:15:31.843Z,15.20
2022-11-16T05:16:31.840Z,16.20
2022-11-16T05:17:31.810Z,17.90
2022-11-16T05:18:32.039Z,18.00
2022-11-16T05:19:31.782Z,19.00
2022-11-16T05:20:31.845Z,17.70
2022-11-16T05:21:31.785Z,16.70
2022-11-16T05:22:31.749Z,20.20
2022-11-16T05:23:31.732Z,21.60
2022-11-16T05:24:31.699Z,18.70
2022-11-16T05:25:36.478Z,17.50
2022-11-16T05:26:31.717Z,18.80
2022-11-16T05:27:31.689Z,20.20
2022-11-16T05:28:31.975Z,20.00
2022-11-16T05:29:31.662Z,19.00
2022-11-16T05:30:31.655Z,17.20
2022-11-16T05:31:34.002Z,23.20
2022-11-16T05:32:31.632Z,22.00
2022-11-16T05:33:31.599Z,20.20
2022-11-16T05:34:31.573Z,19.30
2022-11-16T05:35:31.630Z,18.30
2022-11-16T05:36:31.573Z,21.70
2022-11-16T05:37:31.569Z,19.70
2022-11-16T05:38:31.857Z,18.50
2022-11-16T05:39:31.548Z,19.40
2022-11-16T05:40:31.513Z,20.80
2022-11-16T05:41:31.506Z,19.60
2022-11-16T05:42:31.489Z,22.20
2022-11-16T05:43:31.477Z,19.80
2022-11-16T05:44:31.491Z,22.60
2022-11-16T05:45:31.453Z,20.50
2022-11-16T05:46:31.422Z,22.80
2022-11-16T05:47:31.425Z,20.60
2022-11-16T05:48:31.689Z,20.50
2022-11-16T05:49:31.408Z,19.90
2022-11-16T05:50:31.367Z,19.60
2022-11-16T05:51:31.363Z,19.70
2022-11-16T05:52:31.386Z,17.90
2022-11-16T05:53:31.359Z,21.40
2022-11-16T05:54:31.340Z,20.80
2022-11-16T05:55:31.307Z,20.10
2022-11-16T05:56:31.347Z,19.90
2022-11-16T05:57:31.294Z,20.70
2022-11-16T05:58:31.559Z,18.70
2022-11-16T05:59:31.278Z,22.50
2022-11-16T06:00:31.225Z,19.20
2022-11-16T06:01:31.225Z,20.80
2022-11-16T06:02:31.223Z,21.20
2022-11-16T06:03:31.256Z,21.00
2022-11-16T06:04:31.228Z,21.80
2022-11-16T06:05:34.088Z,20.60
2022-11-16T06:06:31.151Z,20.20
2022-11-16T06:07:31.196Z,19.30
2022-11-16T06:08:31.377Z,20.00
2022-11-16T06:09:31.209Z,21.10
2022-11-16T06:10:31.101Z,18.60
2022-11-16T06:11:35.464Z,19.30
2022-11-16T06:12:31.115Z,19.00
2022-11-16T06:13:31.079Z,20.20
2022-11-16T06:14:31.076Z,19.80
2022-11-16T06:15:31.042Z,20.20
2022-11-16T06:16:31.049Z,22.40
2022-11-16T06:17:31.051Z,21.40
2022-11-16T06:18:31.338Z,21.00
2022-11-16T06:19:32.506Z,24.10
2022-11-16T06:20:31.001Z,20.60
2022-11-16T06:21:30.956Z,19.00
2022-11-16T06:22:30.994Z,20.50
2022-11-16T06:23:30.952Z,19.30
2022-11-16T06:24:30.949Z,20.00
2022-11-16T06:25:30.937Z,20.80
2022-11-16T06:26:30.898Z,19.10
2022-11-16T06:27:30.901Z,18.70
2022-11-16T06:28:31.055Z,19.80
2022-11-16T06:29:30.856Z,20.00
2022-11-16T06:30:30.850Z,18.60
2022-11-16T06:31:30.849Z,21.80
2022-11-16T06:32:30.845Z,19.10
2022-11-16T06:33:33.534Z,18.40
2022-11-16T06:34:30.788Z,19.40
2022-11-16T06:35:30.789Z,18.40
2022-11-16T06:36:30.772Z,20.10
2022-11-16T06:37:30.767Z,22.50
2022-11-16T06:38:30.824Z,19.50
2022-11-16T06:39:30.722Z,20.50
2022-11-16T06:40:30.721Z,19.40
2022-11-16T06:41:30.698Z,20.40
2022-11-16T06:42:30.702Z,21.00
2022-11-16T06:43:30.672Z,18.90
2022-11-16T06:44:30.670Z,20.00
2022-11-16T06:45:30.643Z,17.70
2022-11-16T06:46:30.623Z,16.20
2022-11-16T06:47:30.642Z,17.10
2022-11-16T06:48:30.743Z,17.80
2022-11-16T06:49:30.603Z,18.40
2022-11-16T06:50:30.577Z,18.30
2022-11-16T06:51:30.564Z,17.70
2022-11-16T06:52:30.540Z,19.50
2022-11-16T06:53:30.599Z,18.80
2022-11-16T06:54:30.533Z,19.50
2022-11-16T06:55:30.520Z,17.00
2022-11-16T06:56:30.501Z,17.70
2022-11-16T06:57:30.501Z,18.40
2022-11-16T06:58:30.551Z,18.40
2022-11-16T06:59:30.453Z,16.20
2022-11-16T07:00:30.512Z,16.50
2022-11-16T07:01:30.480Z,15.60
2022-11-16T07:02:30.413Z,15.20
2022-11-16T07:03:30.427Z,13.90
2022-11-16T07:04:30.386Z,12.70
2022-11-16T07:05:30.376Z,15.80
2022-11-16T07:06:30.394Z,14.10
2022-11-16T07:07:30.459Z,13.30
2022-11-16T07:08:30.383Z,12.60
2022-11-16T07:09:30.359Z,13.70
2022-11-16T07:10:30.374Z,11.70
2022-11-16T07:11:30.292Z,13.70
2022-11-16T07:12:30.279Z,11.50
2022-11-16T07:13:30.292Z,14.10
2022-11-16T07:14:30.261Z,13.00
2022-11-16T07:15:30.245Z,12.50
2022-11-16T07:16:30.778Z,10.90
2022-11-16T07:17:30.249Z,10.00
2022-11-16T07:18:30.330Z,13.20
2022-11-16T07:19:30.217Z,10.70
2022-11-16T07:20:30.288Z,11.90
2022-11-16T07:21:30.169Z,10.90
2022-11-16T07:22:30.160Z,13.70
2022-11-16T07:23:30.140Z,12.20
2022-11-16T07:24:30.114Z,10.80
2022-11-16T07:25:30.104Z,11.20
2022-11-16T07:26:30.097Z,10.10
2022-11-16T07:27:30.134Z,10.10
2022-11-16T07:28:30.089Z,10.90
2022-11-16T07:29:30.073Z,11.50
2022-11-16T07:30:30.132Z,13.60
2022-11-16T07:31:30.069Z,13.40
2022-11-16T07:32:30.025Z,16.00
2022-11-16T07:33:30.003Z,25.50
2022-11-16T07:34:30.005Z,54.60
2022-11-16T07:35:29.984Z,40.90
2022-11-16T07:36:29.973Z,73.10
2022-11-16T07:37:29.980Z,103.90
2022-11-16T07:38:30.024Z,92.60
2022-11-16T07:39:29.937Z,77.00
2022-11-16T07:40:29.939Z,68.80
2022-11-16T07:41:29.921Z,63.90
2022-11-16T07:42:29.907Z,45.40
2022-11-16T07:43:29.888Z,30.40
2022-11-16T07:44:29.855Z,37.00
2022-11-16T07:45:29.843Z,63.60
2022-11-16T07:46:47.052Z,49.00
2022-11-16T07:47:29.850Z,60.00
2022-11-16T07:48:29.799Z,46.00
2022-11-16T07:49:29.797Z,69.60
2022-11-16T07:50:29.776Z,78.00
2022-11-16T07:51:29.774Z,61.70
2022-11-16T07:52:29.791Z,51.70
2022-11-16T07:53:29.775Z,48.20
2022-11-16T07:54:29.733Z,35.00
2022-11-16T07:55:29.747Z,33.10
2022-11-16T07:56:29.716Z,31.60
2022-11-16T07:57:29.687Z,57.60
2022-11-16T07:58:29.714Z,40.40
2022-11-16T07:59:29.668Z,39.40
2022-11-16T08:00:29.639Z,37.10
2022-11-16T08:01:29.702Z,23.30
2022-11-16T08:02:29.620Z,22.00
2022-11-16T08:03:29.607Z,33.20
2022-11-16T08:04:29.638Z,15.90
2022-11-16T08:05:29.593Z,21.30
2022-11-16T08:06:29.567Z,22.10
2022-11-16T08:07:29.599Z,49.40
2022-11-16T08:08:29.546Z,21.80
2022-11-16T08:09:29.552Z,14.70
2022-11-16T08:10:29.727Z,13.40
2022-11-16T08:11:29.495Z,8.80
2022-11-16T08:12:29.483Z,9.20
2022-11-16T08:13:29.479Z,8.80
2022-11-16T08:14:29.453Z,10.10
2022-11-16T08:15:29.549Z,8.30
2022-11-16T08:16:29.668Z,7.90
2022-11-16T08:17:29.416Z,9.80
2022-11-16T08:18:29.409Z,7.60
2022-11-16T08:19:29.397Z,8.40
2022-11-16T08:20:29.432Z,7.80
2022-11-16T08:21:29.391Z,6.80
2022-11-16T08:22:29.373Z,7.30
2022-11-16T08:23:29.342Z,6.20
2022-11-16T08:24:29.320Z,7.20
2022-11-16T08:25:29.316Z,7.40
2022-11-16T08:26:29.344Z,6.90
2022-11-16T08:27:29.297Z,8.00
2022-11-16T08:28:29.298Z,9.10
2022-11-16T08:29:29.273Z,9.20
2022-11-16T08:30:29.245Z,9.60
2022-11-16T08:31:29.260Z,6.10
2022-11-16T08:32:29.199Z,6.40
2022-11-16T08:33:29.232Z,5.10
2022-11-16T08:34:29.202Z,8.40
2022-11-16T08:35:29.238Z,7.30
2022-11-16T08:36:29.165Z,8.80
2022-11-16T08:37:29.198Z,10.20
2022-11-16T08:38:29.177Z,9.40
2022-11-16T08:39:29.132Z,9.30
2022-11-16T08:40:29.175Z,10.70
2022-11-16T08:41:29.116Z,7.50
2022-11-16T08:42:29.074Z,8.00
2022-11-16T08:43:29.108Z,9.40
2022-11-16T08:44:29.078Z,7.80
2022-11-16T08:45:29.041Z,9.40
2022-11-16T08:46:29.067Z,8.50
2022-11-16T08:47:29.021Z,10.30
2022-11-16T08:48:29.032Z,8.00
2022-11-16T08:49:29.069Z,7.50
2022-11-16T08:50:29.027Z,9.00
2022-11-16T08:51:28.974Z,6.00
2022-11-16T08:52:28.948Z,7.50
2022-11-16T08:53:28.925Z,6.40
2022-11-16T08:54:28.979Z,7.90
2022-11-16T08:55:28.983Z,6.50
2022-11-16T08:56:28.906Z,6.20
2022-11-16T08:57:28.874Z,6.90
2022-11-16T08:58:28.886Z,7.00
2022-11-16T08:59:28.871Z,6.70
2022-11-16T09:00:28.840Z,7.30
2022-11-16T09:01:28.959Z,8.30
2022-11-16T09:02:28.815Z,8.70
2022-11-16T09:03:28.847Z,7.30
2022-11-16T09:04:31.568Z,6.90
2022-11-16T09:05:28.824Z,6.20
2022-11-16T09:06:28.813Z,6.70
2022-11-16T09:07:28.895Z,6.10
2022-11-16T09:08:28.751Z,8.60
2022-11-16T09:09:28.753Z,7.50
2022-11-16T09:10:28.741Z,7.80
2022-11-16T09:11:28.703Z,6.70
2022-11-16T09:12:28.848Z,7.50
2022-11-16T09:13:28.679Z,7.40
2022-11-16T09:14:28.698Z,8.60
2022-11-16T09:15:28.636Z,6.20
2022-11-16T09:16:28.652Z,8.50
2022-11-16T09:17:28.638Z,5.70
2022-11-16T09:18:28.617Z,7.70
2022-11-16T09:19:28.578Z,5.80
2022-11-16T09:20:28.616Z,5.50
2022-11-16T09:21:28.582Z,7.90
2022-11-16T09:22:28.577Z,7.40
2022-11-16T09:23:28.551Z,6.70
2022-11-16T09:24:28.550Z,8.30
2022-11-16T09:25:28.508Z,7.30
2022-11-16T09:26:28.567Z,6.50
2022-11-16T09:27:28.506Z,9.30
2022-11-16T09:28:28.478Z,8.20
2022-11-16T09:29:28.505Z,7.60
2022-11-16T09:30:28.451Z,7.70
2022-11-16T09:31:28.437Z,6.90
2022-11-16T09:32:28.415Z,8.50
2022-11-16T09:33:28.456Z,6.90
2022-11-16T09:34:28.424Z,6.30
2022-11-16T09:35:28.392Z,7.90
2022-11-16T09:36:28.369Z,6.80
2022-11-16T09:37:28.373Z,6.70
2022-11-16T09:38:40.722Z,6.50
2022-11-16T09:39:32.152Z,11.20
2022-11-16T09:40:28.307Z,9.80
2022-11-16T09:41:28.307Z,7.40
2022-11-16T09:42:28.328Z,9.00
2022-11-16T09:43:28.293Z,10.80
2022-11-16T09:44:28.299Z,7.70
2022-11-16T09:45:28.267Z,6.60
2022-11-16T09:46:28.239Z,7.20
2022-11-16T09:47:28.239Z,7.50
2022-11-16T09:48:28.226Z,9.20
2022-11-16T09:49:28.199Z,5.80
2022-11-16T09:50:28.212Z,8.70
2022-11-16T09:51:28.175Z,6.30
2022-11-16T09:52:28.181Z,8.60
2022-11-16T09:53:28.160Z,5.50
2022-11-16T09:54:28.140Z,5.20
2022-11-16T09:55:28.178Z,8.60
2022-11-16T09:56:28.113Z,10.10
2022-11-16T09:57:28.108Z,7.20
2022-11-16T09:58:28.199Z,5.50
2022-11-16T09:59:28.070Z,4.80
2022-11-16T10:00:28.138Z,5.30
2022-11-16T10:01:28.263Z,4.90
2022-11-16T10:02:28.023Z,5.50
2022-11-16T10:03:28.017Z,6.50
2022-11-16T10:04:28.037Z,4.70
2022-11-16T10:05:27.985Z,3.80
2022-11-16T10:06:27.985Z,4.60
2022-11-16T10:07:28.054Z,4.70
2022-11-16T10:08:27.964Z,5.70
2022-11-16T10:09:27.953Z,7.60
2022-11-16T10:10:27.926Z,4.60
2022-11-16T10:11:27.981Z,3.60
2022-11-16T10:12:27.895Z,3.40
2022-11-16T10:13:27.923Z,3.50
2022-11-16T10:14:27.847Z,4.30
2022-11-16T10:15:27.857Z,3.50
2022-11-16T10:16:27.868Z,8.10
2022-11-16T10:17:27.896Z,4.20
2022-11-16T10:18:27.830Z,4.00
2022-11-16T10:19:27.875Z,4.90
2022-11-16T10:20:30.819Z,4.40
2022-11-16T10:21:27.779Z,6.00
2022-11-16T10:22:27.847Z,5.80
2022-11-16T10:23:27.754Z,4.60
2022-11-16T10:24:27.734Z,4.50
2022-11-16T10:25:28.258Z,4.80
2022-11-16T10:26:27.703Z,5.10
2022-11-16T10:27:27.790Z,4.90
2022-11-16T10:28:27.728Z,4.70
2022-11-16T10:29:27.702Z,7.20
2022-11-16T10:30:27.661Z,6.00
2022-11-16T10:31:27.646Z,6.00
2022-11-16T10:32:27.614Z,3.70
2022-11-16T10:33:27.638Z,5.60
2022-11-16T10:34:27.611Z,5.50
2022-11-16T10:35:27.604Z,7.80
2022-11-16T10:36:27.642Z,4.10
2022-11-16T10:37:27.631Z,5.50
2022-11-16T10:38:27.588Z,4.10
2022-11-16T10:39:27.536Z,4.90
2022-11-16T10:40:27.541Z,5.00
2022-11-16T10:41:27.507Z,4.60
2022-11-16T10:42:27.499Z,4.20
2022-11-16T10:43:27.502Z,7.00
2022-11-16T10:44:27.485Z,9.00
2022-11-16T10:45:27.464Z,13.10
2022-11-16T10:46:27.456Z,10.90
2022-11-16T10:47:33.437Z,7.60
2022-11-16T10:48:27.416Z,9.30
2022-11-16T10:49:27.430Z,7.00
2022-11-16T10:50:27.424Z,4.90
2022-11-16T10:51:27.433Z,4.30
2022-11-16T10:52:27.369Z,6.90
2022-11-16T10:53:27.365Z,8.00
2022-11-16T10:54:27.337Z,12.50
2022-11-16T10:55:27.339Z,7.90
2022-11-16T10:56:27.371Z,6.10
2022-11-16T10:57:27.355Z,5.00
2022-11-16T10:58:27.302Z,3.20
2022-11-16T10:59:27.278Z,5.50
2022-11-16T11:00:27.450Z,4.60
2022-11-16T11:01:27.267Z,4.90
2022-11-16T11:02:27.232Z,5.10
2022-11-16T11:03:27.218Z,5.30
2022-11-16T11:04:27.220Z,3.00
2022-11-16T11:05:27.235Z,6.30
2022-11-16T11:06:27.204Z,3.60
2022-11-16T11:07:27.315Z,5.30
2022-11-16T11:08:27.179Z,4.80
2022-11-16T11:09:27.174Z,3.80
2022-11-16T11:10:27.354Z,6.40
2022-11-16T11:11:27.142Z,4.30
2022-11-16T11:12:27.114Z,7.10
2022-11-16T11:13:27.100Z,6.40
2022-11-16T11:14:28.086Z,4.40
2022-11-16T11:15:27.361Z,5.00
2022-11-16T11:16:27.089Z,4.40
2022-11-16T11:17:27.052Z,5.60
2022-11-16T11:18:27.983Z,4.10
2022-11-16T11:19:27.056Z,6.20
2022-11-16T11:20:27.009Z,4.40
2022-11-16T11:21:26.998Z,6.00
2022-11-16T11:22:27.016Z,3.70
2022-11-16T11:23:26.957Z,4.20
2022-11-16T11:24:44.094Z,4.40
2022-11-16T11:25:26.931Z,3.00
2022-11-16T11:26:31.708Z,4.30
2022-11-16T11:27:26.899Z,4.10
2022-11-16T11:28:26.929Z,5.70
2022-11-16T11:29:26.897Z,5.00
2022-11-16T11:30:26.861Z,7.00
2022-11-16T11:31:26.853Z,2.60
2022-11-16T11:32:27.018Z,3.70
2022-11-16T11:33:26.825Z,7.60
2022-11-16T11:34:26.808Z,2.80
2022-11-16T11:35:26.799Z,4.90
2022-11-16T11:36:26.832Z,5.10
2022-11-16T11:37:26.794Z,5.20
2022-11-16T11:38:26.768Z,3.80
2022-11-16T11:39:26.837Z,3.50
2022-11-16T11:40:26.723Z,4.40
2022-11-16T11:41:26.729Z,4.70
2022-11-16T11:42:26.706Z,5.10
2022-11-16T11:43:26.683Z,2.00
2022-11-16T11:44:26.685Z,5.20
2022-11-16T11:45:26.700Z,5.50
2022-11-16T11:46:47.349Z,4.40
2022-11-16T11:47:56.137Z,5.20
2022-11-16T11:48:26.668Z,4.20
2022-11-16T11:49:31.968Z,6.00
2022-11-16T11:50:26.597Z,4.30
2022-11-16T11:51:26.613Z,5.20
2022-11-16T11:52:26.581Z,5.80
2022-11-16T11:53:26.581Z,6.30
2022-11-16T11:54:26.580Z,4.80
2022-11-16T11:55:26.554Z,5.90
2022-11-16T11:56:26.542Z,4.50
2022-11-16T11:57:26.519Z,6.20
2022-11-16T11:58:26.514Z,5.00
2022-11-16T11:59:26.493Z,5.10
2022-11-16T12:00:26.477Z,2.70
2022-11-16T12:01:26.506Z,6.00
2022-11-16T12:02:26.495Z,3.90
2022-11-16T12:03:26.467Z,9.10
2022-11-16T12:04:26.418Z,2.60
2022-11-16T12:05:26.392Z,5.00
2022-11-16T12:06:26.399Z,3.70
2022-11-16T12:07:26.446Z,5.20
2022-11-16T12:08:26.372Z,4.30
2022-11-16T12:09:26.353Z,2.60
2022-11-16T12:10:26.322Z,4.60
2022-11-16T12:11:26.352Z,3.20
2022-11-16T12:12:26.306Z,3.80
2022-11-16T12:13:26.340Z,5.50
2022-11-16T12:14:26.299Z,3.50
2022-11-16T12:15:26.281Z,6.70
2022-11-16T12:16:26.276Z,4.00
2022-11-16T12:17:26.240Z,5.60
2022-11-16T12:18:26.264Z,4.30
2022-11-16T12:19:26.227Z,4.80
2022-11-16T12:20:26.217Z,2.80
2022-11-16T12:21:26.238Z,3.00
2022-11-16T12:22:26.180Z,5.10
2022-11-16T12:23:26.200Z,6.80
2022-11-16T12:24:26.152Z,4.70
2022-11-16T12:25:26.149Z,7.60
2022-11-16T12:26:26.152Z,4.30
2022-11-16T12:27:26.125Z,2.70
2022-11-16T12:28:26.201Z,4.70
2022-11-16T12:29:26.113Z,4.80
2022-11-16T12:30:26.082Z,5.60
2022-11-16T12:31:26.068Z,4.70
2022-11-16T12:32:26.054Z,5.40
2022-11-16T12:33:26.079Z,5.00
2022-11-16T12:34:26.021Z,3.00
2022-11-16T12:35:26.005Z,4.20
2022-11-16T12:36:25.993Z,5.70
2022-11-16T12:37:25.987Z,3.30
2022-11-16T12:38:26.539Z,4.30
2022-11-16T12:39:25.996Z,6.00
2022-11-16T12:40:25.950Z,4.20
2022-11-16T12:41:25.927Z,4.90
2022-11-16T12:42:25.912Z,3.90
2022-11-16T12:43:25.902Z,6.40
2022-11-16T12:44:25.895Z,3.40
2022-11-16T12:45:31.874Z,5.00
2022-11-16T12:46:25.872Z,4.80
2022-11-16T12:47:25.844Z,4.10
2022-11-16T12:48:25.893Z,4.80
2022-11-16T12:49:25.830Z,4.70
2022-11-16T12:50:25.848Z,4.00
2022-11-16T12:51:30.502Z,3.40
2022-11-16T12:52:25.794Z,4.80
2022-11-16T12:53:25.799Z,5.10
2022-11-16T12:54:25.801Z,4.10
2022-11-16T12:55:27.469Z,9.00
2022-11-16T12:56:25.756Z,5.70
2022-11-16T12:57:25.724Z,4.60
2022-11-16T12:58:25.691Z,4.70
2022-11-16T12:59:25.716Z,6.90
2022-11-16T13:00:25.709Z,3.10
2022-11-16T13:01:25.706Z,4.10